sensor_id;sensor_type;location;lat;lon;timestamp;temperature;humidity
8537;DHT22;4306;50.210;10.628;2022-09-09T00:00:55;13.80;99.90
8537;DHT22;4306;50.210;10.628;2022-09-09T00:03:26;13.70;99.90
8537;DHT22;4306;50.210;10.628;2022-09-09T00:06:00;13.60;99.90
8537;DHT22;4306;50.210;10.628;2022-09-09T00:08:37;13.70;99.90
8537;DHT22;4306;50.210;10.628;2022-09-09T00:11:05;13.70;99.90
8537;DHT22;4306;50.210;10.628;2022-09-09T00:13:38;13.70;99.90
8537;DHT22;4306;50.210;10.628;2022-09-09T00:16:12;13.70;99.90
8537;DHT22;4306;50.210;10.628;2022-09-09T00:18:52;13.50;99.90
8537;DHT22;4306;50.210;10.628;2022-09-09T00:21:25;13.30;99.90
8537;DHT22;4306;50.210;10.628;2022-09-09T00:23:54;13.10;99.90
8537;DHT22;4306;50.210;10.628;2022-09-09T00:26:30;13.00;99.90
8537;DHT22;4306;50.210;10.628;2022-09-09T00:29:03;13.00;99.90
8537;DHT22;4306;50.210;10.628;2022-09-09T00:31:32;13.00;99.90
8537;DHT22;4306;50.210;10.628;2022-09-09T00:34:04;12.90;99.90
8537;DHT22;4306;50.210;10.628;2022-09-09T00:36:35;13.00;99.90
8537;DHT22;4306;50.210;10.628;2022-09-09T00:39:04;13.00;99.90
8537;DHT22;4306;50.210;10.628;2022-09-09T00:41:44;13.00;99.90
8537;DHT22;4306;50.210;10.628;2022-09-09T00:44:25;13.00;99.90
8537;DHT22;4306;50.210;10.628;2022-09-09T00:47:04;13.00;99.90
8537;DHT22;4306;50.210;10.628;2022-09-09T00:49:43;12.90;99.90
8537;DHT22;4306;50.210;10.628;2022-09-09T00:52:21;12.70;99.90
8537;DHT22;4306;50.210;10.628;2022-09-09T00:54:55;12.70;99.90
8537;DHT22;4306;50.210;10.628;2022-09-09T00:57:26;12.50;99.90
8537;DHT22;4306;50.210;10.628;2022-09-09T01:00:14;12.50;99.90
8537;DHT22;4306;50.210;10.628;2022-09-09T01:05:36;12.50;99.90
8537;DHT22;4306;50.210;10.628;2022-09-09T01:08:18;12.40;99.90
8537;DHT22;4306;50.210;10.628;2022-09-09T01:10:54;12.40;99.90
8537;DHT22;4306;50.210;10.628;2022-09-09T01:13:24;12.50;99.90
8537;DHT22;4306;50.210;10.628;2022-09-09T01:15:53;12.40;99.90
8537;DHT22;4306;50.210;10.628;2022-09-09T01:18:23;12.50;99.90
8537;DHT22;4306;50.210;10.628;2022-09-09T01:21:01;12.50;99.90
8537;DHT22;4306;50.210;10.628;2022-09-09T01:23:43;12.60;99.90
8537;DHT22;4306;50.210;10.628;2022-09-09T01:26:18;12.60;99.90
8537;DHT22;4306;50.210;10.628;2022-09-09T01:28:47;12.80;99.90
8537;DHT22;4306;50.210;10.628;2022-09-09T01:31:18;12.80;99.90
8537;DHT22;4306;50.210;10.628;2022-09-09T01:33:46;12.90;99.90
8537;DHT22;4306;50.210;10.628;2022-09-09T01:36:21;13.00;99.90
8537;DHT22;4306;50.210;10.628;2022-09-09T01:38:51;13.00;99.90
8537;DHT22;4306;50.210;10.628;2022-09-09T01:41:20;13.10;99.90
8537;DHT22;4306;50.210;10.628;2022-09-09T01:43:47;13.20;99.90
8537;DHT22;4306;50.210;10.628;2022-09-09T01:46:14;13.20;99.90
8537;DHT22;4306;50.210;10.628;2022-09-09T01:48:43;13.20;99.90
8537;DHT22;4306;50.210;10.628;2022-09-09T01:51:10;13.20;99.90
8537;DHT22;4306;50.210;10.628;2022-09-09T01:53:38;13.20;99.90
8537;DHT22;4306;50.210;10.628;2022-09-09T01:56:15;13.20;99.90
8537;DHT22;4306;50.210;10.628;2022-09-09T01:58:57;13.30;99.90
8537;DHT22;4306;50.210;10.628;2022-09-09T02:01:39;13.20;99.90
8537;DHT22;4306;50.210;10.628;2022-09-09T02:04:15;13.20;99.90
8537;DHT22;4306;50.210;10.628;2022-09-09T02:06:45;13.20;99.90
8537;DHT22;4306;50.210;10.628;2022-09-09T02:09:13;13.30;99.90
8537;DHT22;4306;50.210;10.628;2022-09-09T02:11:43;13.20;99.90
8537;DHT22;4306;50.210;10.628;2022-09-09T02:14:17;13.20;99.90
8537;DHT22;4306;50.210;10.628;2022-09-09T02:16:48;13.20;99.90
8537;DHT22;4306;50.210;10.628;2022-09-09T02:19:19;13.20;99.90
8537;DHT22;4306;50.210;10.628;2022-09-09T02:21:52;13.10;99.90
8537;DHT22;4306;50.210;10.628;2022-09-09T02:24:21;13.00;99.90
8537;DHT22;4306;50.210;10.628;2022-09-09T02:26:51;13.00;99.90
8537;DHT22;4306;50.210;10.628;2022-09-09T02:29:25;12.90;99.90
8537;DHT22;4306;50.210;10.628;2022-09-09T02:31:55;12.80;99.90
8537;DHT22;4306;50.210;10.628;2022-09-09T02:34:25;12.80;99.90
8537;DHT22;4306;50.210;10.628;2022-09-09T02:36:55;12.80;99.90
8537;DHT22;4306;50.210;10.628;2022-09-09T02:39:23;12.80;99.90
8537;DHT22;4306;50.210;10.628;2022-09-09T02:41:50;12.80;99.90
8537;DHT22;4306;50.210;10.628;2022-09-09T02:44:18;12.90;99.90
8537;DHT22;4306;50.210;10.628;2022-09-09T02:47:00;12.90;99.90
8537;DHT22;4306;50.210;10.628;2022-09-09T02:49:38;12.90;99.90
8537;DHT22;4306;50.210;10.628;2022-09-09T02:52:08;12.90;99.90
8537;DHT22;4306;50.210;10.628;2022-09-09T02:54:38;13.00;99.90
8537;DHT22;4306;50.210;10.628;2022-09-09T02:57:10;12.90;99.90
8537;DHT22;4306;50.210;10.628;2022-09-09T02:59:37;13.00;99.90
8537;DHT22;4306;50.210;10.628;2022-09-09T03:02:06;13.20;99.90
8537;DHT22;4306;50.210;10.628;2022-09-09T03:04:35;13.00;99.90
8537;DHT22;4306;50.210;10.628;2022-09-09T03:07:03;13.00;99.90
8537;DHT22;4306;50.210;10.628;2022-09-09T03:09:30;13.00;99.90
8537;DHT22;4306;50.210;10.628;2022-09-09T03:11:58;13.00;99.90
8537;DHT22;4306;50.210;10.628;2022-09-09T03:14:27;13.00;99.90
8537;DHT22;4306;50.210;10.628;2022-09-09T03:16:54;13.00;99.90
8537;DHT22;4306;50.210;10.628;2022-09-09T03:19:23;13.00;99.90
8537;DHT22;4306;50.210;10.628;2022-09-09T03:21:50;13.10;99.90
8537;DHT22;4306;50.210;10.628;2022-09-09T03:24:17;13.10;99.90
8537;DHT22;4306;50.210;10.628;2022-09-09T03:26:44;13.10;99.90
8537;DHT22;4306;50.210;10.628;2022-09-09T03:29:11;13.10;99.90
8537;DHT22;4306;50.210;10.628;2022-09-09T03:31:39;13.10;99.90
8537;DHT22;4306;50.210;10.628;2022-09-09T03:34:06;13.10;99.90
8537;DHT22;4306;50.210;10.628;2022-09-09T03:36:35;13.10;99.90
8537;DHT22;4306;50.210;10.628;2022-09-09T03:39:03;13.10;99.90
8537;DHT22;4306;50.210;10.628;2022-09-09T03:41:30;13.00;99.90
8537;DHT22;4306;50.210;10.628;2022-09-09T03:43:57;13.10;99.90
8537;DHT22;4306;50.210;10.628;2022-09-09T03:46:25;13.10;99.90
8537;DHT22;4306;50.210;10.628;2022-09-09T03:48:52;13.10;99.90
8537;DHT22;4306;50.210;10.628;2022-09-09T03:51:20;13.10;99.90
8537;DHT22;4306;50.210;10.628;2022-09-09T03:53:49;13.10;99.90
8537;DHT22;4306;50.210;10.628;2022-09-09T03:56:16;13.10;99.90
8537;DHT22;4306;50.210;10.628;2022-09-09T03:58:42;13.10;99.90
8537;DHT22;4306;50.210;10.628;2022-09-09T04:01:11;13.20;99.90
8537;DHT22;4306;50.210;10.628;2022-09-09T04:03:39;13.10;99.90
8537;DHT22;4306;50.210;10.628;2022-09-09T04:06:08;13.20;99.90
8537;DHT22;4306;50.210;10.628;2022-09-09T04:08:36;13.20;99.90
8537;DHT22;4306;50.210;10.628;2022-09-09T04:11:06;13.20;99.90
8537;DHT22;4306;50.210;10.628;2022-09-09T04:13:36;13.20;99.90
8537;DHT22;4306;50.210;10.628;2022-09-09T04:16:05;13.20;99.90
8537;DHT22;4306;50.210;10.628;2022-09-09T04:18:32;13.20;99.90
8537;DHT22;4306;50.210;10.628;2022-09-09T04:20:59;13.20;99.90
8537;DHT22;4306;50.210;10.628;2022-09-09T04:23:28;13.20;99.90
8537;DHT22;4306;50.210;10.628;2022-09-09T04:25:56;13.30;99.90
8537;DHT22;4306;50.210;10.628;2022-09-09T04:28:27;13.20;99.90
8537;DHT22;4306;50.210;10.628;2022-09-09T04:30:54;13.20;99.90
8537;DHT22;4306;50.210;10.628;2022-09-09T04:33:23;13.30;99.90
8537;DHT22;4306;50.210;10.628;2022-09-09T04:35:52;13.30;99.90
8537;DHT22;4306;50.210;10.628;2022-09-09T04:38:20;13.20;99.90
8537;DHT22;4306;50.210;10.628;2022-09-09T04:40:48;13.20;99.90
8537;DHT22;4306;50.210;10.628;2022-09-09T04:43:17;13.20;99.90
8537;DHT22;4306;50.210;10.628;2022-09-09T04:45:47;13.20;99.90
8537;DHT22;4306;50.210;10.628;2022-09-09T04:48:15;13.20;99.90
8537;DHT22;4306;50.210;10.628;2022-09-09T04:50:42;13.30;99.90
8537;DHT22;4306;50.210;10.628;2022-09-09T04:53:09;13.30;99.90
8537;DHT22;4306;50.210;10.628;2022-09-09T04:55:36;13.30;99.90
8537;DHT22;4306;50.210;10.628;2022-09-09T04:58:03;13.30;99.90
8537;DHT22;4306;50.210;10.628;2022-09-09T05:00:31;13.30;99.90
8537;DHT22;4306;50.210;10.628;2022-09-09T05:03:02;13.30;99.90
8537;DHT22;4306;50.210;10.628;2022-09-09T05:05:30;13.40;99.90
8537;DHT22;4306;50.210;10.628;2022-09-09T05:08:01;13.40;99.90
8537;DHT22;4306;50.210;10.628;2022-09-09T05:10:28;13.40;99.90
8537;DHT22;4306;50.210;10.628;2022-09-09T05:12:55;13.40;99.90
8537;DHT22;4306;50.210;10.628;2022-09-09T05:15:22;13.50;99.90
8537;DHT22;4306;50.210;10.628;2022-09-09T05:17:49;13.60;99.90
8537;DHT22;4306;50.210;10.628;2022-09-09T05:20:19;13.50;99.90
8537;DHT22;4306;50.210;10.628;2022-09-09T05:22:46;13.50;99.90
8537;DHT22;4306;50.210;10.628;2022-09-09T05:25:14;13.60;99.90
8537;DHT22;4306;50.210;10.628;2022-09-09T05:27:41;13.60;99.90
8537;DHT22;4306;50.210;10.628;2022-09-09T05:30:09;13.60;99.90
8537;DHT22;4306;50.210;10.628;2022-09-09T05:32:36;13.60;99.90
8537;DHT22;4306;50.210;10.628;2022-09-09T05:35:04;13.60;99.90
8537;DHT22;4306;50.210;10.628;2022-09-09T05:37:32;13.60;99.90
8537;DHT22;4306;50.210;10.628;2022-09-09T05:39:59;13.60;99.90
8537;DHT22;4306;50.210;10.628;2022-09-09T05:42:30;13.60;99.90
8537;DHT22;4306;50.210;10.628;2022-09-09T05:44:57;13.60;99.90
8537;DHT22;4306;50.210;10.628;2022-09-09T05:47:24;13.50;99.90
8537;DHT22;4306;50.210;10.628;2022-09-09T05:49:53;13.50;99.90
8537;DHT22;4306;50.210;10.628;2022-09-09T05:52:20;13.60;99.90
8537;DHT22;4306;50.210;10.628;2022-09-09T05:54:49;13.60;99.90
8537;DHT22;4306;50.210;10.628;2022-09-09T05:57:16;13.70;99.90
8537;DHT22;4306;50.210;10.628;2022-09-09T05:59:45;13.70;99.90
8537;DHT22;4306;50.210;10.628;2022-09-09T06:02:12;13.70;99.90
8537;DHT22;4306;50.210;10.628;2022-09-09T06:04:39;13.70;99.90
8537;DHT22;4306;50.210;10.628;2022-09-09T06:07:05;13.80;99.90
8537;DHT22;4306;50.210;10.628;2022-09-09T06:09:32;13.80;99.90
8537;DHT22;4306;50.210;10.628;2022-09-09T06:12:01;13.90;99.90
8537;DHT22;4306;50.210;10.628;2022-09-09T06:14:28;13.90;99.90
8537;DHT22;4306;50.210;10.628;2022-09-09T06:16:55;13.90;99.90
8537;DHT22;4306;50.210;10.628;2022-09-09T06:19:22;13.90;99.90
8537;DHT22;4306;50.210;10.628;2022-09-09T06:21:52;14.00;99.90
8537;DHT22;4306;50.210;10.628;2022-09-09T06:24:19;14.00;99.90
8537;DHT22;4306;50.210;10.628;2022-09-09T06:26:46;14.00;99.90
8537;DHT22;4306;50.210;10.628;2022-09-09T06:29:15;14.00;99.90
8537;DHT22;4306;50.210;10.628;2022-09-09T06:31:42;14.10;99.90
8537;DHT22;4306;50.210;10.628;2022-09-09T06:34:09;14.10;99.90
8537;DHT22;4306;50.210;10.628;2022-09-09T06:36:37;14.20;99.90
8537;DHT22;4306;50.210;10.628;2022-09-09T06:39:05;14.30;99.90
8537;DHT22;4306;50.210;10.628;2022-09-09T06:41:33;14.40;99.90
8537;DHT22;4306;50.210;10.628;2022-09-09T06:44:01;14.50;99.90
8537;DHT22;4306;50.210;10.628;2022-09-09T06:46:30;14.50;99.90
8537;DHT22;4306;50.210;10.628;2022-09-09T06:48:59;14.70;99.90
8537;DHT22;4306;50.210;10.628;2022-09-09T06:51:27;14.80;99.90
8537;DHT22;4306;50.210;10.628;2022-09-09T06:53:56;15.00;99.90
8537;DHT22;4306;50.210;10.628;2022-09-09T06:56:25;15.00;99.90
8537;DHT22;4306;50.210;10.628;2022-09-09T06:58:54;15.20;99.90
8537;DHT22;4306;50.210;10.628;2022-09-09T07:01:23;15.30;99.90
8537;DHT22;4306;50.210;10.628;2022-09-09T07:03:52;15.50;99.90
8537;DHT22;4306;50.210;10.628;2022-09-09T07:06:22;15.50;99.90
8537;DHT22;4306;50.210;10.628;2022-09-09T07:08:50;15.70;99.90
8537;DHT22;4306;50.210;10.628;2022-09-09T07:11:18;15.70;99.90
8537;DHT22;4306;50.210;10.628;2022-09-09T07:13:46;15.90;99.90
8537;DHT22;4306;50.210;10.628;2022-09-09T07:16:14;15.90;99.90
8537;DHT22;4306;50.210;10.628;2022-09-09T07:18:41;16.10;99.90
8537;DHT22;4306;50.210;10.628;2022-09-09T07:21:11;16.20;99.90
8537;DHT22;4306;50.210;10.628;2022-09-09T07:23:38;16.10;99.90
8537;DHT22;4306;50.210;10.628;2022-09-09T07:26:08;16.50;99.90
8537;DHT22;4306;50.210;10.628;2022-09-09T07:28:36;16.70;99.90
8537;DHT22;4306;50.210;10.628;2022-09-09T07:31:04;16.80;99.90
8537;DHT22;4306;50.210;10.628;2022-09-09T07:33:32;16.80;99.90
8537;DHT22;4306;50.210;10.628;2022-09-09T07:36:05;16.90;99.90
8537;DHT22;4306;50.210;10.628;2022-09-09T07:38:37;17.00;99.90
8537;DHT22;4306;50.210;10.628;2022-09-09T07:41:06;17.00;99.90
8537;DHT22;4306;50.210;10.628;2022-09-09T07:43:34;17.10;99.90
8537;DHT22;4306;50.210;10.628;2022-09-09T07:46:01;17.10;99.90
8537;DHT22;4306;50.210;10.628;2022-09-09T07:48:28;17.10;99.90
8537;DHT22;4306;50.210;10.628;2022-09-09T07:51:07;17.20;99.90
8537;DHT22;4306;50.210;10.628;2022-09-09T07:53:35;17.30;99.90
8537;DHT22;4306;50.210;10.628;2022-09-09T07:56:05;17.30;99.90
8537;DHT22;4306;50.210;10.628;2022-09-09T07:58:33;17.30;99.90
8537;DHT22;4306;50.210;10.628;2022-09-09T08:01:00;17.40;99.90
8537;DHT22;4306;50.210;10.628;2022-09-09T08:03:27;17.40;99.90
8537;DHT22;4306;50.210;10.628;2022-09-09T08:06:00;17.50;99.90
8537;DHT22;4306;50.210;10.628;2022-09-09T08:08:28;17.50;99.90
8537;DHT22;4306;50.210;10.628;2022-09-09T08:11:03;17.60;99.90
8537;DHT22;4306;50.210;10.628;2022-09-09T08:13:30;17.70;99.90
8537;DHT22;4306;50.210;10.628;2022-09-09T08:16:04;17.70;99.90
8537;DHT22;4306;50.210;10.628;2022-09-09T08:18:32;17.80;99.90
8537;DHT22;4306;50.210;10.628;2022-09-09T08:21:05;17.80;99.90
8537;DHT22;4306;50.210;10.628;2022-09-09T08:23:32;18.00;99.90
8537;DHT22;4306;50.210;10.628;2022-09-09T08:26:05;17.90;99.90
8537;DHT22;4306;50.210;10.628;2022-09-09T08:28:32;18.00;99.90
8537;DHT22;4306;50.210;10.628;2022-09-09T08:31:06;18.00;99.90
8537;DHT22;4306;50.210;10.628;2022-09-09T08:33:33;18.10;99.90
8537;DHT22;4306;50.210;10.628;2022-09-09T08:36:02;18.20;99.90
8537;DHT22;4306;50.210;10.628;2022-09-09T08:38:28;18.20;99.90
8537;DHT22;4306;50.210;10.628;2022-09-09T08:41:06;18.30;99.90
8537;DHT22;4306;50.210;10.628;2022-09-09T08:43:34;18.30;99.90
8537;DHT22;4306;50.210;10.628;2022-09-09T08:46:07;18.40;99.90
8537;DHT22;4306;50.210;10.628;2022-09-09T08:48:49;18.50;99.90
8537;DHT22;4306;50.210;10.628;2022-09-09T08:51:19;18.40;99.90
8537;DHT22;4306;50.210;10.628;2022-09-09T08:53:49;18.50;99.90
8537;DHT22;4306;50.210;10.628;2022-09-09T08:56:22;18.50;99.90
8537;DHT22;4306;50.210;10.628;2022-09-09T08:58:51;18.50;99.90
8537;DHT22;4306;50.210;10.628;2022-09-09T09:01:41;18.60;99.90
8537;DHT22;4306;50.210;10.628;2022-09-09T09:04:20;18.70;99.90
8537;DHT22;4306;50.210;10.628;2022-09-09T09:06:55;18.70;99.90
8537;DHT22;4306;50.210;10.628;2022-09-09T09:09:31;18.70;99.90
8537;DHT22;4306;50.210;10.628;2022-09-09T09:12:10;18.70;99.90
8537;DHT22;4306;50.210;10.628;2022-09-09T09:14:39;18.80;99.90
8537;DHT22;4306;50.210;10.628;2022-09-09T09:17:11;18.80;99.90
8537;DHT22;4306;50.210;10.628;2022-09-09T09:19:41;18.90;99.90
8537;DHT22;4306;50.210;10.628;2022-09-09T09:22:16;18.90;99.90
8537;DHT22;4306;50.210;10.628;2022-09-09T09:24:51;19.00;99.90
8537;DHT22;4306;50.210;10.628;2022-09-09T09:27:30;19.10;99.90
8537;DHT22;4306;50.210;10.628;2022-09-09T09:29:59;19.20;99.90
8537;DHT22;4306;50.210;10.628;2022-09-09T09:32:30;19.40;99.90
8537;DHT22;4306;50.210;10.628;2022-09-09T09:34:58;19.50;99.90
8537;DHT22;4306;50.210;10.628;2022-09-09T09:37:28;19.70;99.90
8537;DHT22;4306;50.210;10.628;2022-09-09T09:39:56;19.80;99.90
8537;DHT22;4306;50.210;10.628;2022-09-09T09:42:24;19.90;99.90
8537;DHT22;4306;50.210;10.628;2022-09-09T09:44:51;20.00;99.90
8537;DHT22;4306;50.210;10.628;2022-09-09T09:47:20;20.10;99.90
8537;DHT22;4306;50.210;10.628;2022-09-09T09:49:55;20.00;99.90
8537;DHT22;4306;50.210;10.628;2022-09-09T09:52:25;20.00;99.90
8537;DHT22;4306;50.210;10.628;2022-09-09T09:54:54;20.00;99.90
8537;DHT22;4306;50.210;10.628;2022-09-09T09:57:26;20.00;99.90
8537;DHT22;4306;50.210;10.628;2022-09-09T10:00:02;20.00;99.90
8537;DHT22;4306;50.210;10.628;2022-09-09T10:02:37;20.20;99.90
8537;DHT22;4306;50.210;10.628;2022-09-09T10:05:12;20.30;99.90
8537;DHT22;4306;50.210;10.628;2022-09-09T10:07:39;20.20;99.90
8537;DHT22;4306;50.210;10.628;2022-09-09T10:10:10;20.50;99.90
8537;DHT22;4306;50.210;10.628;2022-09-09T10:12:49;20.60;99.90
8537;DHT22;4306;50.210;10.628;2022-09-09T10:15:29;20.60;99.90
8537;DHT22;4306;50.210;10.628;2022-09-09T10:18:05;20.60;99.90
8537;DHT22;4306;50.210;10.628;2022-09-09T10:20:40;20.40;99.90
8537;DHT22;4306;50.210;10.628;2022-09-09T10:23:21;20.50;99.90
8537;DHT22;4306;50.210;10.628;2022-09-09T10:26:23;20.60;99.90
8537;DHT22;4306;50.210;10.628;2022-09-09T10:29:16;20.60;99.90
8537;DHT22;4306;50.210;10.628;2022-09-09T10:31:54;20.60;99.90
8537;DHT22;4306;50.210;10.628;2022-09-09T10:34:39;20.60;99.90
8537;DHT22;4306;50.210;10.628;2022-09-09T10:37:19;20.60;99.90
8537;DHT22;4306;50.210;10.628;2022-09-09T10:39:54;20.50;99.80
8537;DHT22;4306;50.210;10.628;2022-09-09T10:42:30;20.40;99.70
8537;DHT22;4306;50.210;10.628;2022-09-09T10:45:07;20.40;99.70
8537;DHT22;4306;50.210;10.628;2022-09-09T10:47:58;20.50;99.90
8537;DHT22;4306;50.210;10.628;2022-09-09T10:50:50;20.60;99.90
8537;DHT22;4306;50.210;10.628;2022-09-09T10:53:25;20.60;99.90
8537;DHT22;4306;50.210;10.628;2022-09-09T10:55:59;20.60;99.90
8537;DHT22;4306;50.210;10.628;2022-09-09T10:58:37;20.50;99.90
8537;DHT22;4306;50.210;10.628;2022-09-09T11:01:12;20.50;99.90
8537;DHT22;4306;50.210;10.628;2022-09-09T11:03:42;20.50;99.90
8537;DHT22;4306;50.210;10.628;2022-09-09T11:06:13;20.70;99.90
8537;DHT22;4306;50.210;10.628;2022-09-09T11:08:41;20.80;99.40
8537;DHT22;4306;50.210;10.628;2022-09-09T11:11:12;21.00;99.60
8537;DHT22;4306;50.210;10.628;2022-09-09T11:13:45;21.10;98.60
8537;DHT22;4306;50.210;10.628;2022-09-09T11:16:23;21.20;98.20
8537;DHT22;4306;50.210;10.628;2022-09-09T11:18:55;21.20;97.40
8537;DHT22;4306;50.210;10.628;2022-09-09T11:21:28;21.10;96.60
8537;DHT22;4306;50.210;10.628;2022-09-09T11:23:59;21.10;96.90
8537;DHT22;4306;50.210;10.628;2022-09-09T11:26:31;21.10;96.80
8537;DHT22;4306;50.210;10.628;2022-09-09T11:29:12;21.10;96.90
8537;DHT22;4306;50.210;10.628;2022-09-09T11:31:56;21.00;96.80
8537;DHT22;4306;50.210;10.628;2022-09-09T11:34:39;21.30;97.60
8537;DHT22;4306;50.210;10.628;2022-09-09T11:37:47;21.20;96.40
8537;DHT22;4306;50.210;10.628;2022-09-09T11:40:19;21.30;96.80
8537;DHT22;4306;50.210;10.628;2022-09-09T11:42:49;21.20;96.70
8537;DHT22;4306;50.210;10.628;2022-09-09T11:45:28;21.20;96.80
8537;DHT22;4306;50.210;10.628;2022-09-09T11:47:58;21.20;97.00
8537;DHT22;4306;50.210;10.628;2022-09-09T11:50:30;21.00;96.10
8537;DHT22;4306;50.210;10.628;2022-09-09T11:53:19;20.90;97.40
8537;DHT22;4306;50.210;10.628;2022-09-09T11:55:59;20.60;98.80
8537;DHT22;4306;50.210;10.628;2022-09-09T11:58:27;20.10;99.90
8537;DHT22;4306;50.210;10.628;2022-09-09T12:00:58;20.00;99.90
8537;DHT22;4306;50.210;10.628;2022-09-09T12:03:40;19.50;99.90
8537;DHT22;4306;50.210;10.628;2022-09-09T12:06:18;18.90;99.90
8537;DHT22;4306;50.210;10.628;2022-09-09T12:08:50;18.40;99.90
8537;DHT22;4306;50.210;10.628;2022-09-09T12:11:28;18.40;99.90
8537;DHT22;4306;50.210;10.628;2022-09-09T12:13:58;17.90;99.90
8537;DHT22;4306;50.210;10.628;2022-09-09T12:16:30;18.00;99.90
8537;DHT22;4306;50.210;10.628;2022-09-09T12:19:14;17.80;99.90
8537;DHT22;4306;50.210;10.628;2022-09-09T12:21:49;17.80;99.90
8537;DHT22;4306;50.210;10.628;2022-09-09T12:24:25;17.80;99.90
8537;DHT22;4306;50.210;10.628;2022-09-09T12:26:59;17.90;99.90
8537;DHT22;4306;50.210;10.628;2022-09-09T12:29:36;18.20;99.90
8537;DHT22;4306;50.210;10.628;2022-09-09T12:32:07;18.40;99.90
8537;DHT22;4306;50.210;10.628;2022-09-09T12:34:42;18.70;99.90
8537;DHT22;4306;50.210;10.628;2022-09-09T12:37:18;19.00;99.90
8537;DHT22;4306;50.210;10.628;2022-09-09T12:39:51;19.20;99.90
8537;DHT22;4306;50.210;10.628;2022-09-09T12:42:22;19.40;99.90
8537;DHT22;4306;50.210;10.628;2022-09-09T12:44:53;19.40;99.90
8537;DHT22;4306;50.210;10.628;2022-09-09T12:47:22;19.40;99.90
8537;DHT22;4306;50.210;10.628;2022-09-09T12:49:52;19.40;99.90
8537;DHT22;4306;50.210;10.628;2022-09-09T12:52:25;19.40;99.90
8537;DHT22;4306;50.210;10.628;2022-09-09T12:54:56;19.40;99.90
8537;DHT22;4306;50.210;10.628;2022-09-09T12:57:26;19.50;99.90
8537;DHT22;4306;50.210;10.628;2022-09-09T13:00:05;19.50;99.90
8537;DHT22;4306;50.210;10.628;2022-09-09T13:02:33;19.50;99.90
8537;DHT22;4306;50.210;10.628;2022-09-09T13:05:15;19.60;99.90
8537;DHT22;4306;50.210;10.628;2022-09-09T13:07:42;19.70;99.90
8537;DHT22;4306;50.210;10.628;2022-09-09T13:10:11;19.60;99.90
8537;DHT22;4306;50.210;10.628;2022-09-09T13:12:39;19.70;99.90
8537;DHT22;4306;50.210;10.628;2022-09-09T13:15:14;19.80;99.90
8537;DHT22;4306;50.210;10.628;2022-09-09T13:17:50;19.80;99.90
8537;DHT22;4306;50.210;10.628;2022-09-09T13:20:19;19.90;99.90
8537;DHT22;4306;50.210;10.628;2022-09-09T13:22:48;20.00;99.90
8537;DHT22;4306;50.210;10.628;2022-09-09T13:25:21;20.10;99.90
8537;DHT22;4306;50.210;10.628;2022-09-09T13:27:59;20.20;99.90
8537;DHT22;4306;50.210;10.628;2022-09-09T13:30:28;20.30;99.90
8537;DHT22;4306;50.210;10.628;2022-09-09T13:33:18;20.40;99.90
8537;DHT22;4306;50.210;10.628;2022-09-09T13:35:53;20.50;99.90
8537;DHT22;4306;50.210;10.628;2022-09-09T13:38:21;20.60;99.90
8537;DHT22;4306;50.210;10.628;2022-09-09T13:40:56;20.70;99.90
8537;DHT22;4306;50.210;10.628;2022-09-09T13:43:27;20.80;99.90
8537;DHT22;4306;50.210;10.628;2022-09-09T13:45:56;20.80;99.50
8537;DHT22;4306;50.210;10.628;2022-09-09T13:48:24;20.90;99.90
8537;DHT22;4306;50.210;10.628;2022-09-09T13:50:58;21.00;99.60
8537;DHT22;4306;50.210;10.628;2022-09-09T13:53:25;21.00;99.70
8537;DHT22;4306;50.210;10.628;2022-09-09T13:55:52;20.90;99.30
8537;DHT22;4306;50.210;10.628;2022-09-09T13:58:19;20.80;99.60
8537;DHT22;4306;50.210;10.628;2022-09-09T14:00:48;20.90;99.90
8537;DHT22;4306;50.210;10.628;2022-09-09T14:03:15;20.80;99.80
8537;DHT22;4306;50.210;10.628;2022-09-09T14:05:43;20.90;99.90
8537;DHT22;4306;50.210;10.628;2022-09-09T14:08:21;20.90;99.70
8537;DHT22;4306;50.210;10.628;2022-09-09T14:10:49;21.10;99.90
8537;DHT22;4306;50.210;10.628;2022-09-09T14:13:16;21.20;99.90
8537;DHT22;4306;50.210;10.628;2022-09-09T14:15:43;21.30;99.50
8537;DHT22;4306;50.210;10.628;2022-09-09T14:18:11;21.40;99.40
8537;DHT22;4306;50.210;10.628;2022-09-09T14:20:40;21.50;99.10
8537;DHT22;4306;50.210;10.628;2022-09-09T14:23:11;21.60;99.10
8537;DHT22;4306;50.210;10.628;2022-09-09T14:25:41;21.70;98.70
8537;DHT22;4306;50.210;10.628;2022-09-09T14:28:12;21.60;98.70
8537;DHT22;4306;50.210;10.628;2022-09-09T14:30:41;21.80;98.90
8537;DHT22;4306;50.210;10.628;2022-09-09T14:33:11;21.80;98.30
8537;DHT22;4306;50.210;10.628;2022-09-09T14:35:38;21.70;97.80
8537;DHT22;4306;50.210;10.628;2022-09-09T14:38:07;21.70;98.20
8537;DHT22;4306;50.210;10.628;2022-09-09T14:40:35;21.60;97.10
8537;DHT22;4306;50.210;10.628;2022-09-09T14:43:04;21.50;97.50
8537;DHT22;4306;50.210;10.628;2022-09-09T14:45:31;21.50;97.60
8537;DHT22;4306;50.210;10.628;2022-09-09T14:47:58;21.40;96.40
8537;DHT22;4306;50.210;10.628;2022-09-09T14:50:25;21.40;96.60
8537;DHT22;4306;50.210;10.628;2022-09-09T14:52:52;21.40;96.80
8537;DHT22;4306;50.210;10.628;2022-09-09T14:55:19;21.40;96.60
8537;DHT22;4306;50.210;10.628;2022-09-09T14:57:47;21.40;95.90
8537;DHT22;4306;50.210;10.628;2022-09-09T15:00:15;21.40;96.10
8537;DHT22;4306;50.210;10.628;2022-09-09T15:02:42;21.40;96.10
8537;DHT22;4306;50.210;10.628;2022-09-09T15:05:09;21.40;95.70
8537;DHT22;4306;50.210;10.628;2022-09-09T15:07:36;21.30;96.00
8537;DHT22;4306;50.210;10.628;2022-09-09T15:10:04;21.40;96.00
8537;DHT22;4306;50.210;10.628;2022-09-09T15:12:32;21.40;95.80
8537;DHT22;4306;50.210;10.628;2022-09-09T15:15:01;21.40;95.70
8537;DHT22;4306;50.210;10.628;2022-09-09T15:17:32;21.40;95.80
8537;DHT22;4306;50.210;10.628;2022-09-09T15:19:59;21.30;94.90
8537;DHT22;4306;50.210;10.628;2022-09-09T15:22:26;21.30;95.50
8537;DHT22;4306;50.210;10.628;2022-09-09T15:24:53;21.20;95.40
8537;DHT22;4306;50.210;10.628;2022-09-09T15:27:20;21.20;95.40
8537;DHT22;4306;50.210;10.628;2022-09-09T15:29:48;21.10;95.60
8537;DHT22;4306;50.210;10.628;2022-09-09T15:32:16;21.10;95.40
8537;DHT22;4306;50.210;10.628;2022-09-09T15:34:45;21.10;95.70
8537;DHT22;4306;50.210;10.628;2022-09-09T15:37:12;21.00;95.80
8537;DHT22;4306;50.210;10.628;2022-09-09T15:39:39;20.90;95.50
8537;DHT22;4306;50.210;10.628;2022-09-09T15:42:07;20.90;95.50
8537;DHT22;4306;50.210;10.628;2022-09-09T15:44:39;20.90;95.30
8537;DHT22;4306;50.210;10.628;2022-09-09T15:47:07;20.90;95.60
8537;DHT22;4306;50.210;10.628;2022-09-09T15:49:38;20.80;96.10
8537;DHT22;4306;50.210;10.628;2022-09-09T15:52:06;20.70;97.10
8537;DHT22;4306;50.210;10.628;2022-09-09T15:54:34;20.40;97.60
8537;DHT22;4306;50.210;10.628;2022-09-09T15:57:05;20.30;99.00
8537;DHT22;4306;50.210;10.628;2022-09-09T15:59:33;20.20;99.90
8537;DHT22;4306;50.210;10.628;2022-09-09T16:02:00;20.00;99.70
8537;DHT22;4306;50.210;10.628;2022-09-09T16:04:28;20.00;99.60
8537;DHT22;4306;50.210;10.628;2022-09-09T16:06:56;19.90;99.90
8537;DHT22;4306;50.210;10.628;2022-09-09T16:09:26;19.90;99.90
8537;DHT22;4306;50.210;10.628;2022-09-09T16:11:56;19.80;99.90